createdAt,value
2018-07-27T00:00:46.067Z,27.50
2018-07-27T00:02:50.129Z,27.60
2018-07-27T00:07:01.674Z,27.40
2018-07-27T00:09:11.872Z,27.30
2018-07-27T00:11:16.316Z,27.30
2018-07-27T00:13:24.347Z,27.50
2018-07-27T00:15:28.629Z,27.40
2018-07-27T00:17:38.675Z,27.30
2018-07-27T00:19:45.902Z,27.20
2018-07-27T00:21:52.793Z,27.30
2018-07-27T00:23:57.916Z,27.30
2018-07-27T00:26:05.528Z,27.30
2018-07-27T00:28:13.782Z,27.20
2018-07-27T00:30:19.445Z,27.20
2018-07-27T00:32:26.206Z,27.20
2018-07-27T00:34:30.331Z,27.20
2018-07-27T00:36:34.829Z,27.10
2018-07-27T00:38:42.408Z,27.20
2018-07-27T00:40:49.178Z,27.20
2018-07-27T00:43:03.392Z,27.20
2018-07-27T00:49:21.817Z,27.10
2018-07-27T00:51:25.917Z,27.20
2018-07-27T00:55:38.182Z,27.00
2018-07-27T00:57:42.225Z,27.10
2018-07-27T00:59:46.258Z,27.20
2018-07-27T01:01:51.567Z,27.20
2018-07-27T01:03:56.273Z,27.20
2018-07-27T01:06:07.443Z,27.20
2018-07-27T01:08:13.766Z,27.20
2018-07-27T01:10:19.174Z,27.20
2018-07-27T01:12:24.250Z,27.20
2018-07-27T01:14:28.301Z,27.10
2018-07-27T01:16:32.350Z,27.00
2018-07-27T01:18:36.479Z,27.00
2018-07-27T01:20:41.256Z,27.00
2018-07-27T01:22:45.399Z,27.00
2018-07-27T01:24:49.451Z,26.90
2018-07-27T01:26:53.845Z,26.80
2018-07-27T01:28:59.446Z,26.80
2018-07-27T01:31:03.453Z,26.90
2018-07-27T01:33:08.662Z,26.90
2018-07-27T01:35:12.782Z,26.80
2018-07-27T01:37:19.185Z,26.80
2018-07-27T01:39:23.833Z,26.80
2018-07-27T01:41:28.938Z,26.70
2018-07-27T01:43:33.002Z,26.80
2018-07-27T01:45:37.512Z,26.80
2018-07-27T01:47:41.452Z,26.80
2018-07-27T01:49:46.367Z,26.80
2018-07-27T01:51:50.638Z,26.80
2018-07-27T01:53:55.281Z,26.70
2018-07-27T01:55:59.347Z,26.70
2018-07-27T01:58:04.598Z,26.70
2018-07-27T02:00:09.199Z,26.70
2018-07-27T02:02:13.166Z,26.80
2018-07-27T02:04:17.067Z,26.80
2018-07-27T02:06:21.024Z,26.80
2018-07-27T02:08:24.878Z,26.80
2018-07-27T02:10:29.518Z,26.90
2018-07-27T02:12:33.415Z,26.90
2018-07-27T02:14:37.432Z,26.80
2018-07-27T02:16:43.398Z,26.80
2018-07-27T02:18:47.387Z,26.70
2018-07-27T02:20:51.346Z,26.70
2018-07-27T02:22:55.664Z,26.60
2018-07-27T02:24:59.594Z,26.60
2018-07-27T02:27:03.527Z,26.60
2018-07-27T02:29:09.112Z,26.60
2018-07-27T02:31:14.082Z,26.60
2018-07-27T02:33:19.036Z,26.70
2018-07-27T02:35:24.154Z,26.70
2018-07-27T02:37:28.085Z,26.60
2018-07-27T02:39:31.991Z,26.60
2018-07-27T02:41:37.086Z,26.60
2018-07-27T02:43:41.120Z,26.50
2018-07-27T02:45:45.009Z,26.50
2018-07-27T02:47:50.579Z,26.50
2018-07-27T02:49:54.501Z,26.60
2018-07-27T02:51:59.102Z,26.50
2018-07-27T02:54:04.037Z,26.60
2018-07-27T02:56:08.017Z,26.70
2018-07-27T02:58:11.981Z,26.80
2018-07-27T03:00:18.438Z,26.60
2018-07-27T03:02:23.651Z,26.50
2018-07-27T03:04:27.620Z,26.40
2018-07-27T03:06:32.451Z,26.40
2018-07-27T03:08:37.457Z,26.40
2018-07-27T03:10:41.511Z,26.40
2018-07-27T03:19:01.425Z,26.30
2018-07-27T03:21:05.438Z,26.30
2018-07-27T03:23:09.436Z,26.30
2018-07-27T03:25:14.117Z,26.40
2018-07-27T03:29:21.616Z,26.40
2018-07-27T03:31:25.935Z,26.30
2018-07-27T03:33:29.946Z,26.30
2018-07-27T03:35:33.907Z,26.20
2018-07-27T03:37:38.331Z,26.20
2018-07-27T03:39:42.308Z,26.20
2018-07-27T03:41:46.548Z,26.20
2018-07-27T03:43:51.404Z,26.20
2018-07-27T03:45:55.387Z,26.20
2018-07-27T03:47:59.407Z,26.10
2018-07-27T03:50:03.337Z,26.20
2018-07-27T03:52:07.340Z,26.20
2018-07-27T03:54:11.232Z,26.20
2018-07-27T03:56:16.088Z,26.20
2018-07-27T03:58:20.061Z,26.20
2018-07-27T04:00:23.996Z,26.20
2018-07-27T04:02:28.375Z,26.20
2018-07-27T04:04:32.617Z,26.20
2018-07-27T04:06:36.614Z,26.20
2018-07-27T04:08:40.957Z,26.20
2018-07-27T04:10:44.847Z,26.20
2018-07-27T04:12:48.909Z,26.10
2018-07-27T04:14:53.816Z,26.20
2018-07-27T04:16:57.781Z,26.20
2018-07-27T04:19:02.138Z,26.20
2018-07-27T04:21:06.431Z,26.20
2018-07-27T04:23:10.433Z,26.00
2018-07-27T04:25:14.544Z,26.00
2018-07-27T04:27:20.925Z,26.20
2018-07-27T04:29:25.885Z,26.30
2018-07-27T04:33:34.777Z,26.40
2018-07-27T04:35:38.852Z,26.40
2018-07-27T04:37:42.722Z,26.40
2018-07-27T04:39:47.746Z,26.40
2018-07-27T04:41:51.626Z,26.50
2018-07-27T04:43:55.626Z,26.70
2018-07-27T04:46:00.280Z,26.60
2018-07-27T04:48:05.053Z,26.70
2018-07-27T04:50:10.411Z,26.80
2018-07-27T04:52:14.366Z,26.80
2018-07-27T04:54:18.727Z,26.90
2018-07-27T04:56:22.658Z,27.10
2018-07-27T04:58:28.479Z,27.30
2018-07-27T05:00:32.479Z,27.50
2018-07-27T05:02:36.454Z,27.80
2018-07-27T05:04:40.441Z,27.90
2018-07-27T05:06:47.027Z,28.20
2018-07-27T05:08:56.685Z,28.50
2018-07-27T05:11:00.631Z,28.60
2018-07-27T05:13:05.151Z,28.70
2018-07-27T05:15:10.974Z,28.90
2018-07-27T05:17:14.977Z,29.10
2018-07-27T05:19:19.247Z,29.30
2018-07-27T05:21:23.157Z,29.60
2018-07-27T05:23:28.369Z,29.70
2018-07-27T05:25:32.385Z,29.90
2018-07-27T05:27:36.453Z,30.20
2018-07-27T05:29:40.885Z,30.40
2018-07-27T05:31:45.370Z,30.50
2018-07-27T05:33:49.961Z,30.70
2018-07-27T05:35:55.122Z,30.70
2018-07-27T05:37:59.403Z,30.90
2018-07-27T05:40:03.479Z,31.00
2018-07-27T05:42:07.496Z,31.30
2018-07-27T05:44:11.762Z,31.30
2018-07-27T05:46:16.338Z,31.50
2018-07-27T05:48:20.361Z,31.60
2018-07-27T05:50:24.450Z,31.50
2018-07-27T05:52:28.471Z,31.50
2018-07-27T05:54:32.574Z,31.60
2018-07-27T05:56:37.968Z,31.70
2018-07-27T05:58:41.936Z,31.80
2018-07-27T06:00:47.171Z,31.90
2018-07-27T06:04:56.444Z,31.70
2018-07-27T06:07:00.510Z,31.40
2018-07-27T06:09:09.116Z,31.10
2018-07-27T06:11:13.223Z,30.90
2018-07-27T06:13:17.299Z,30.70
2018-07-27T06:17:28.673Z,30.60
2018-07-27T06:21:37.289Z,30.70
2018-07-27T06:23:41.376Z,30.60
2018-07-27T06:25:45.815Z,30.50
2018-07-27T06:27:50.113Z,30.40
2018-07-27T06:29:54.132Z,30.60
2018-07-27T06:32:00.409Z,30.70
2018-07-27T06:34:05.739Z,30.70
2018-07-27T06:36:10.401Z,30.80
2018-07-27T06:38:14.423Z,30.90
2018-07-27T06:40:18.823Z,31.10
2018-07-27T06:44:26.316Z,31.30
2018-07-27T06:48:34.600Z,31.20
2018-07-27T06:50:38.647Z,31.30
2018-07-27T06:52:45.178Z,31.50
2018-07-27T06:54:49.177Z,31.70
2018-07-27T06:56:54.015Z,31.70
2018-07-27T06:59:02.821Z,31.70
2018-07-27T07:01:07.937Z,31.90
2018-07-27T07:03:13.222Z,32.10
2018-07-27T07:05:20.263Z,32.20
2018-07-27T07:07:24.634Z,32.30
2018-07-27T07:09:30.060Z,32.40
2018-07-27T07:11:34.150Z,32.30
2018-07-27T07:13:38.137Z,32.30
2018-07-27T07:15:42.120Z,32.20
2018-07-27T07:17:46.805Z,32.20
2018-07-27T07:19:50.787Z,32.10
2018-07-27T07:21:54.794Z,32.10
2018-07-27T07:23:59.016Z,32.20
2018-07-27T07:26:03.307Z,32.20
2018-07-27T07:28:08.662Z,32.10
2018-07-27T07:30:15.123Z,32.10
2018-07-27T07:32:20.010Z,32.40
2018-07-27T07:34:24.861Z,32.60
2018-07-27T07:36:29.105Z,32.70
2018-07-27T07:38:33.137Z,32.60
2018-07-27T07:40:37.178Z,32.80
2018-07-27T07:42:42.678Z,32.90
2018-07-27T07:44:46.877Z,32.90
2018-07-27T07:46:56.785Z,32.80
2018-07-27T07:49:06.313Z,32.90
2018-07-27T07:51:10.728Z,32.80
2018-07-27T07:53:16.130Z,32.80
2018-07-27T07:55:20.505Z,32.90
2018-07-27T07:57:24.516Z,33.10
2018-07-27T07:59:30.279Z,33.40
2018-07-27T08:01:35.752Z,33.60
2018-07-27T08:03:39.721Z,33.60
2018-07-27T08:05:45.609Z,33.70
2018-07-27T08:07:49.924Z,33.80
2018-07-27T08:09:56.736Z,33.50
2018-07-27T08:12:03.111Z,33.50
2018-07-27T08:14:07.998Z,33.30
2018-07-27T08:16:15.455Z,33.10
2018-07-27T08:18:19.559Z,33.30
2018-07-27T08:20:24.509Z,33.60
2018-07-27T08:22:31.480Z,33.60
2018-07-27T08:26:46.784Z,34.20
2018-07-27T08:28:51.355Z,34.20
2018-07-27T08:30:57.185Z,34.30
2018-07-27T08:33:02.507Z,34.30
2018-07-27T08:35:06.751Z,34.20
2018-07-27T08:37:11.789Z,34.30
2018-07-27T08:39:18.459Z,34.30
2018-07-27T08:41:22.515Z,34.30
2018-07-27T08:43:26.570Z,34.50
2018-07-27T08:45:31.497Z,34.60
2018-07-27T08:47:35.710Z,34.60
2018-07-27T08:49:40.380Z,34.70
2018-07-27T08:51:44.340Z,35.00
2018-07-27T08:53:50.032Z,35.30
2018-07-27T08:55:54.825Z,35.40
2018-07-27T08:57:59.345Z,35.20
2018-07-27T09:00:05.757Z,35.30
2018-07-27T09:04:15.840Z,35.00
2018-07-27T09:06:20.024Z,34.90
2018-07-27T09:08:24.082Z,34.90
2018-07-27T09:10:30.896Z,35.00
2018-07-27T09:12:35.266Z,34.90
2018-07-27T09:14:41.699Z,34.90
2018-07-27T09:16:51.352Z,35.10
2018-07-27T09:18:56.075Z,34.90
2018-07-27T09:21:00.302Z,34.80
2018-07-27T09:23:04.793Z,34.90
2018-07-27T09:25:09.887Z,34.90
2018-07-27T09:27:14.747Z,35.20
2018-07-27T09:29:19.428Z,35.60
2018-07-27T09:31:24.240Z,36.00
2018-07-27T09:33:29.364Z,36.30
2018-07-27T09:35:35.488Z,36.60
2018-07-27T09:37:40.687Z,36.70
2018-07-27T09:39:44.621Z,36.70
2018-07-27T09:41:49.547Z,36.40
2018-07-27T09:43:53.675Z,36.30
2018-07-27T09:45:59.179Z,36.60
2018-07-27T09:48:05.637Z,36.90
2018-07-27T09:50:11.465Z,37.00
2018-07-27T09:52:16.325Z,36.90
2018-07-27T09:54:23.691Z,37.00
2018-07-27T09:56:28.348Z,37.00
2018-07-27T09:58:33.522Z,36.80
2018-07-27T10:00:43.187Z,36.80
2018-07-27T10:02:56.963Z,37.00
2018-07-27T10:05:03.907Z,37.10
2018-07-27T10:07:13.247Z,37.00
2018-07-27T10:09:17.247Z,37.30
2018-07-27T10:11:21.557Z,37.60
2018-07-27T10:13:30.766Z,37.90
2018-07-27T10:15:36.150Z,37.90
2018-07-27T10:17:41.380Z,37.50
2018-07-27T10:19:46.514Z,37.50
2018-07-27T10:21:50.463Z,37.10
2018-07-27T10:23:54.601Z,37.00
2018-07-27T10:26:01.492Z,37.20
2018-07-27T10:28:06.364Z,37.70
2018-07-27T10:30:10.362Z,38.10
2018-07-27T10:32:22.019Z,37.70
2018-07-27T10:34:33.094Z,37.60
2018-07-27T10:38:43.617Z,38.10
2018-07-27T10:40:48.610Z,38.10
2018-07-27T10:42:52.728Z,38.30
2018-07-27T10:44:57.148Z,38.50
2018-07-27T10:47:01.999Z,38.60
2018-07-27T10:49:08.406Z,38.50
2018-07-27T10:53:20.037Z,38.30
2018-07-27T10:55:25.252Z,38.40
2018-07-27T10:57:34.956Z,38.20
2018-07-27T10:59:41.764Z,38.30
2018-07-27T11:01:46.860Z,38.40
2018-07-27T11:03:52.443Z,38.50
2018-07-27T11:05:57.736Z,38.60
2018-07-27T11:08:02.455Z,39.00
2018-07-27T11:10:07.654Z,39.00
2018-07-27T11:12:18.345Z,39.00
2018-07-27T11:14:23.116Z,39.20
2018-07-27T11:16:27.375Z,39.50
2018-07-27T11:18:31.418Z,39.50
2018-07-27T11:20:36.070Z,39.30
2018-07-27T11:22:46.686Z,39.20
2018-07-27T11:24:51.261Z,39.10
2018-07-27T11:26:56.795Z,39.40
2018-07-27T11:29:10.061Z,39.60
2018-07-27T11:31:17.414Z,39.50
2018-07-27T11:33:22.600Z,39.90
2018-07-27T11:35:27.023Z,40.20
2018-07-27T11:37:31.025Z,40.40
2018-07-27T11:39:35.311Z,40.50
2018-07-27T11:41:39.762Z,40.20
2018-07-27T11:43:45.684Z,40.00
2018-07-27T11:45:49.635Z,39.40
2018-07-27T11:47:53.629Z,39.30
2018-07-27T11:49:59.384Z,39.50
2018-07-27T11:52:06.457Z,39.70
2018-07-27T11:54:11.424Z,40.00
2018-07-27T11:56:23.575Z,40.20
2018-07-27T11:58:27.619Z,40.30
2018-07-27T12:00:32.091Z,40.60
2018-07-27T12:02:36.197Z,40.70
2018-07-27T12:04:40.415Z,41.10
2018-07-27T12:06:45.497Z,41.40
2018-07-27T12:08:50.191Z,41.50
2018-07-27T12:10:54.133Z,41.20
2018-07-27T12:12:58.737Z,41.30
2018-07-27T12:15:04.708Z,41.30
2018-07-27T12:17:08.668Z,41.50
2018-07-27T12:23:20.475Z,41.30
2018-07-27T12:27:30.638Z,40.80
2018-07-27T12:31:41.144Z,40.90
2018-07-27T12:33:45.194Z,41.20
2018-07-27T12:35:49.278Z,41.60
2018-07-27T12:37:53.248Z,42.10
2018-07-27T12:39:57.979Z,42.10
2018-07-27T12:42:03.061Z,41.80
2018-07-27T12:44:09.518Z,41.60
2018-07-27T12:46:14.864Z,41.60
2018-07-27T12:48:21.763Z,41.90
2018-07-27T12:50:26.436Z,42.20
2018-07-27T12:52:30.537Z,42.20
2018-07-27T12:54:34.486Z,42.30
2018-07-27T12:56:38.788Z,41.90
2018-07-27T12:58:43.816Z,42.10
2018-07-27T13:00:47.845Z,42.40
2018-07-27T13:02:55.428Z,42.50
2018-07-27T13:05:04.133Z,42.20
2018-07-27T13:07:10.407Z,42.20
2018-07-27T13:09:14.705Z,42.40
2018-07-27T13:11:18.760Z,42.50
2018-07-27T13:13:23.409Z,42.40
2018-07-27T13:15:27.942Z,42.60
2018-07-27T13:17:32.153Z,42.70
2018-07-27T13:19:36.227Z,43.00
2018-07-27T13:21:40.450Z,43.00
2018-07-27T13:23:55.040Z,42.20
2018-07-27T13:26:23.879Z,42.20
2018-07-27T13:28:12.920Z,42.20
2018-07-27T13:30:18.698Z,42.30
2018-07-27T13:32:23.277Z,42.40
2018-07-27T13:35:29.958Z,42.20
2018-07-27T13:39:46.097Z,41.90
2018-07-27T13:41:50.846Z,41.30
2018-07-27T13:43:55.577Z,40.70
2018-07-27T13:46:00.571Z,40.40
2018-07-27T13:48:04.713Z,40.80
2018-07-27T13:50:08.816Z,41.50
2018-07-27T13:52:13.115Z,42.10
2018-07-27T13:54:17.286Z,42.20
2018-07-27T13:56:22.042Z,42.50
2018-07-27T13:58:26.602Z,42.70
2018-07-27T14:00:32.347Z,43.10
2018-07-27T14:02:37.982Z,43.30
2018-07-27T14:04:43.864Z,43.70
2018-07-27T14:06:49.754Z,44.10
2018-07-27T14:08:54.625Z,44.40
2018-07-27T14:11:00.485Z,44.50
2018-07-27T14:13:05.280Z,44.80
2018-07-27T14:15:09.897Z,45.00
2018-07-27T14:17:14.789Z,45.10
2018-07-27T14:19:19.943Z,45.30
2018-07-27T14:21:23.913Z,45.20
2018-07-27T14:23:29.723Z,45.20
2018-07-27T14:25:33.781Z,45.30
2018-07-27T14:29:42.420Z,44.70
2018-07-27T14:31:47.785Z,44.60
2018-07-27T14:33:52.458Z,44.40
2018-07-27T14:35:56.982Z,44.50
2018-07-27T14:38:01.001Z,44.40
2018-07-27T14:40:05.772Z,44.40
2018-07-27T14:42:10.615Z,44.60
2018-07-27T14:44:15.430Z,45.00
2018-07-27T14:46:20.397Z,45.20
2018-07-27T14:48:25.092Z,45.40
2018-07-27T14:50:30.098Z,45.00
2018-07-27T14:52:36.010Z,45.10
2018-07-27T14:54:40.221Z,45.20
2018-07-27T14:56:44.363Z,45.40
2018-07-27T14:58:50.801Z,45.70
2018-07-27T15:01:07.192Z,45.80
2018-07-27T15:03:13.562Z,45.70
2018-07-27T15:05:18.746Z,45.10
2018-07-27T15:07:38.849Z,43.70
2018-07-27T15:09:44.129Z,43.50
2018-07-27T15:11:54.163Z,43.50
2018-07-27T15:13:58.603Z,43.60
2018-07-27T15:16:03.403Z,44.40
2018-07-27T15:18:08.717Z,45.20
2018-07-27T15:20:15.814Z,45.60
2018-07-27T15:22:23.006Z,45.30
2018-07-27T15:24:28.085Z,44.90
2018-07-27T15:26:32.364Z,44.90
2018-07-27T15:30:42.990Z,44.70
2018-07-27T15:32:58.782Z,44.10
2018-07-27T15:35:04.697Z,43.80
2018-07-27T15:37:09.149Z,43.90
2018-07-27T15:39:14.621Z,43.80
2018-07-27T15:41:19.634Z,43.70
2018-07-27T15:43:24.572Z,43.20
2018-07-27T15:45:30.446Z,43.10
2018-07-27T15:47:34.726Z,42.90
2018-07-27T15:49:39.948Z,43.00
2018-07-27T15:51:51.195Z,43.00
2018-07-27T15:53:56.649Z,42.70
2018-07-27T15:56:01.089Z,42.00
2018-07-27T15:58:08.878Z,41.80
2018-07-27T16:00:19.712Z,41.70
2018-07-27T16:02:24.406Z,41.30
2018-07-27T16:04:31.862Z,40.80
2018-07-27T16:06:36.672Z,40.50
2018-07-27T16:08:44.374Z,40.50
2018-07-27T16:10:51.581Z,40.80
2018-07-27T16:15:05.460Z,41.80
2018-07-27T16:17:12.717Z,41.90
2018-07-27T16:19:16.798Z,42.10
2018-07-27T16:21:23.776Z,42.20
2018-07-27T16:23:32.852Z,42.10
2018-07-27T16:25:38.220Z,42.20
2018-07-27T16:27:42.325Z,42.50
2018-07-27T16:29:57.877Z,43.20
2018-07-27T16:32:02.294Z,43.90
2018-07-27T16:34:07.697Z,44.20
2018-07-27T16:36:13.678Z,44.70
2018-07-27T16:38:21.175Z,45.00
2018-07-27T16:40:25.347Z,45.20
2018-07-27T16:42:31.054Z,45.70
2018-07-27T16:44:35.509Z,46.00
2018-07-27T16:46:40.448Z,45.90
2018-07-27T16:48:45.151Z,46.50
2018-07-27T16:50:50.301Z,46.70
2018-07-27T16:52:54.576Z,46.50
2018-07-27T16:55:00.117Z,46.30
2018-07-27T16:57:05.281Z,45.70
2018-07-27T16:59:12.313Z,45.20
2018-07-27T17:03:21.615Z,44.60
2018-07-27T17:05:25.928Z,44.20
2018-07-27T17:07:31.290Z,44.20
2018-07-27T17:09:36.160Z,44.20
2018-07-27T17:11:40.702Z,44.40
2018-07-27T17:13:51.634Z,44.50
2018-07-27T17:15:58.332Z,44.50
2018-07-27T17:18:05.286Z,44.50
2018-07-27T17:20:09.931Z,44.40
2018-07-27T17:22:16.718Z,43.80
2018-07-27T17:24:27.326Z,43.30
2018-07-27T17:26:33.361Z,42.80
2018-07-27T17:28:39.927Z,42.40
2018-07-27T17:30:48.006Z,42.20
2018-07-27T17:32:52.463Z,42.60
2018-07-27T17:34:57.669Z,42.10
2018-07-27T17:37:01.700Z,41.90
2018-07-27T17:39:09.843Z,41.90
2018-07-27T17:41:14.712Z,41.80
2018-07-27T17:43:21.451Z,41.80
2018-07-27T17:45:28.202Z,41.70
2018-07-27T17:47:34.281Z,41.60
2018-07-27T17:49:46.709Z,41.70
2018-07-27T17:51:51.374Z,41.90
2018-07-27T17:53:56.030Z,42.10
2018-07-27T17:56:02.262Z,41.60
2018-07-27T17:58:06.611Z,41.20
2018-07-27T18:00:14.665Z,40.90
2018-07-27T18:02:20.446Z,40.50
2018-07-27T18:04:27.333Z,39.90
2018-07-27T18:06:31.389Z,39.30
2018-07-27T18:08:37.079Z,38.80
2018-07-27T18:10:43.732Z,38.30
2018-07-27T18:12:49.095Z,37.90
2018-07-27T18:14:53.253Z,37.70
2018-07-27T18:16:57.674Z,37.50
2018-07-27T18:19:02.059Z,37.30
2018-07-27T18:21:07.728Z,37.10
2018-07-27T18:23:12.806Z,36.90
2018-07-27T18:25:17.836Z,36.80
2018-07-27T18:27:22.693Z,36.50
2018-07-27T18:29:29.170Z,36.40
2018-07-27T18:31:34.884Z,36.20
2018-07-27T18:33:39.456Z,36.10
2018-07-27T18:35:49.547Z,35.90
2018-07-27T18:37:56.317Z,35.90
2018-07-27T18:40:01.709Z,35.90
2018-07-27T18:42:06.800Z,35.70
2018-07-27T18:44:12.655Z,35.60
2018-07-27T18:46:20.934Z,35.50
2018-07-27T18:48:28.971Z,35.40
2018-07-27T18:50:33.007Z,35.30
2018-07-27T18:54:51.055Z,35.20
2018-07-27T18:56:55.667Z,35.10
2018-07-27T18:59:06.790Z,34.40
2018-07-27T19:01:11.026Z,34.20
2018-07-27T19:03:15.238Z,34.10
2018-07-27T19:05:24.519Z,33.90
2018-07-27T19:07:31.576Z,33.60
2018-07-27T19:09:36.622Z,33.30
2018-07-27T19:11:42.082Z,33.20
2018-07-27T19:13:46.432Z,33.10
2018-07-27T19:15:53.619Z,33.20
2018-07-27T19:18:01.401Z,33.30
2018-07-27T19:20:05.772Z,33.20
2018-07-27T19:22:10.415Z,33.20
2018-07-27T19:24:25.489Z,33.00
2018-07-27T19:26:34.082Z,32.90
2018-07-27T19:28:40.706Z,32.80
2018-07-27T19:30:47.591Z,32.80
2018-07-27T19:32:51.736Z,32.80
2018-07-27T19:37:01.174Z,32.70
2018-07-27T19:39:08.964Z,32.60
2018-07-27T19:41:14.630Z,32.40
2018-07-27T19:43:19.314Z,32.30
2018-07-27T19:45:23.364Z,32.30
2018-07-27T19:49:33.889Z,32.30
2018-07-27T19:51:38.500Z,32.30
2018-07-27T19:53:42.780Z,32.10
2018-07-27T19:55:47.293Z,31.90
2018-07-27T19:57:51.352Z,31.90
2018-07-27T19:59:57.011Z,31.80
2018-07-27T20:02:03.280Z,31.70
2018-07-27T20:04:08.166Z,31.30
2018-07-27T20:06:14.453Z,31.20
2018-07-27T20:08:18.796Z,31.10
2018-07-27T20:10:23.960Z,31.10
2018-07-27T20:12:28.931Z,30.90
2018-07-27T20:14:38.278Z,30.80
2018-07-27T20:16:43.868Z,30.70
2018-07-27T20:18:48.335Z,30.60
2018-07-27T20:20:53.637Z,30.60
2018-07-27T20:22:58.347Z,30.40
2018-07-27T20:25:03.111Z,30.40
2018-07-27T20:27:09.571Z,30.30
2018-07-27T20:29:58.247Z,30.30
2018-07-27T20:32:07.124Z,30.40
2018-07-27T20:34:11.321Z,30.30
2018-07-27T20:36:16.672Z,30.30
2018-07-27T20:38:32.584Z,30.20
2018-07-27T20:40:37.763Z,30.20
2018-07-27T20:42:49.016Z,30.10
2018-07-27T20:47:34.433Z,30.10
2018-07-27T20:49:40.288Z,30.10
2018-07-27T20:51:45.143Z,30.20
2018-07-27T20:53:51.746Z,30.20
2018-07-27T20:56:11.179Z,30.10
2018-07-27T20:58:16.606Z,30.20
2018-07-27T21:00:23.206Z,30.20
2018-07-27T21:02:56.108Z,30.20
2018-07-27T21:05:02.316Z,30.20
2018-07-27T21:07:08.668Z,30.20
2018-07-27T21:09:15.255Z,30.30
2018-07-27T21:11:22.217Z,30.20
2018-07-27T21:13:27.422Z,30.30
2018-07-27T21:15:31.571Z,30.40
2018-07-27T21:17:36.832Z,30.50
2018-07-27T21:21:46.707Z,30.40
2018-07-27T21:23:51.839Z,30.10
2018-07-27T21:25:57.104Z,29.60
2018-07-27T21:28:02.883Z,29.40
2018-07-27T21:30:12.466Z,29.20
2018-07-27T21:32:20.479Z,29.10
2018-07-27T21:34:25.824Z,29.10
2018-07-27T21:36:32.415Z,29.20
2018-07-27T21:38:40.420Z,29.10
2018-07-27T21:40:46.440Z,29.30
2018-07-27T21:44:59.610Z,28.70
2018-07-27T21:47:05.046Z,28.50
2018-07-27T21:49:12.621Z,28.50
2018-07-27T21:51:18.690Z,28.60
2018-07-27T21:53:27.409Z,28.60
2018-07-27T21:55:35.529Z,28.60
2018-07-27T21:57:42.776Z,28.70
2018-07-27T21:59:48.792Z,28.60
2018-07-27T22:01:56.094Z,28.50
2018-07-27T22:04:03.682Z,28.50
2018-07-27T22:06:09.620Z,28.60
2018-07-27T22:08:16.808Z,28.40
2018-07-27T22:10:24.227Z,28.30
2018-07-27T22:12:29.993Z,28.20
2018-07-27T22:16:44.478Z,28.20
2018-07-27T22:18:48.565Z,28.20
2018-07-27T22:20:56.816Z,28.20
2018-07-27T22:23:03.233Z,28.20
2018-07-27T22:25:13.200Z,28.10
2018-07-27T22:27:20.583Z,28.10
2018-07-27T22:29:24.647Z,28.10
2018-07-27T22:31:33.764Z,28.00
2018-07-27T22:33:38.844Z,27.90
2018-07-27T22:35:55.114Z,27.90
2018-07-27T22:38:02.307Z,28.00
2018-07-27T22:40:13.308Z,28.00
2018-07-27T22:42:20.744Z,27.90
2018-07-27T22:44:28.440Z,27.90
2018-07-27T22:46:33.890Z,27.90
2018-07-27T22:48:38.777Z,27.80
2018-07-27T22:50:49.667Z,27.80
2018-07-27T22:52:57.341Z,27.80
2018-07-27T22:55:03.796Z,27.60
2018-07-27T22:57:12.156Z,27.50
2018-07-27T22:59:18.778Z,27.40
2018-07-27T23:01:26.434Z,27.40
2018-07-27T23:03:35.733Z,27.30
2018-07-27T23:05:45.959Z,27.30
2018-07-27T23:07:55.453Z,27.30
2018-07-27T23:10:03.772Z,27.30
2018-07-27T23:12:09.829Z,27.30
2018-07-27T23:14:28.324Z,27.20
2018-07-27T23:18:51.464Z,27.20
2018-07-27T23:20:57.221Z,27.00
2018-07-27T23:23:02.681Z,27.00
2018-07-27T23:25:23.294Z,26.90
2018-07-27T23:29:50.715Z,26.90
2018-07-27T23:31:57.342Z,27.00
2018-07-27T23:34:01.460Z,27.20
2018-07-27T23:36:11.608Z,27.30
2018-07-27T23:38:26.422Z,27.40
2018-07-27T23:40:30.494Z,27.40
2018-07-27T23:42:39.092Z,27.30
2018-07-27T23:44:45.768Z,27.10
2018-07-27T23:49:03.005Z,26.90
2018-07-27T23:53:32.789Z,26.90
2018-07-27T23:55:40.110Z,26.60
2018-07-27T23:57:47.976Z,26.70
2018-07-27T23:59:59.134Z,26.70
